sensor_id;sensor_type;location;lat;lon;timestamp;P1;durP1;ratioP1;P2;durP2;ratioP2
64938;SDS011;51453;47.738;7.420;2022-11-04T00:01:26;2.75;;;1.00;;
64938;SDS011;51453;47.738;7.420;2022-11-04T00:03:52;2.85;;;0.80;;
64938;SDS011;51453;47.738;7.420;2022-11-04T00:06:19;1.75;;;1.00;;
64938;SDS011;51453;47.738;7.420;2022-11-04T00:08:54;1.20;;;0.80;;
64938;SDS011;51453;47.738;7.420;2022-11-04T00:11:22;1.45;;;1.00;;
64938;SDS011;51453;47.738;7.420;2022-11-04T00:14:07;1.20;;;0.95;;
64938;SDS011;51453;47.738;7.420;2022-11-04T00:16:34;2.40;;;1.02;;
64938;SDS011;51453;47.738;7.420;2022-11-04T00:19:18;7.45;;;1.02;;
64938;SDS011;51453;47.738;7.420;2022-11-04T00:21:44;2.13;;;0.82;;
64938;SDS011;51453;47.738;7.420;2022-11-04T00:24:28;2.70;;;1.00;;
64938;SDS011;51453;47.738;7.420;2022-11-04T00:27:13;2.58;;;1.00;;
64938;SDS011;51453;47.738;7.420;2022-11-04T00:29:59;1.50;;;0.70;;
64938;SDS011;51453;47.738;7.420;2022-11-04T00:32:25;2.67;;;0.90;;
64938;SDS011;51453;47.738;7.420;2022-11-04T00:35:09;1.38;;;1.00;;
64938;SDS011;51453;47.738;7.420;2022-11-04T00:37:37;1.13;;;1.02;;
64938;SDS011;51453;47.738;7.420;2022-11-04T00:40:04;2.70;;;1.00;;
64938;SDS011;51453;47.738;7.420;2022-11-04T00:42:30;8.10;;;1.75;;
64938;SDS011;51453;47.738;7.420;2022-11-04T00:44:56;2.95;;;1.00;;
64938;SDS011;51453;47.738;7.420;2022-11-04T00:47:22;4.25;;;1.20;;
64938;SDS011;51453;47.738;7.420;2022-11-04T00:49:47;2.53;;;0.82;;
64938;SDS011;51453;47.738;7.420;2022-11-04T00:52:13;1.00;;;0.90;;
64938;SDS011;51453;47.738;7.420;2022-11-04T00:54:39;1.13;;;1.00;;
64938;SDS011;51453;47.738;7.420;2022-11-04T00:57:04;0.90;;;0.77;;
64938;SDS011;51453;47.738;7.420;2022-11-04T00:59:33;1.83;;;1.20;;
64938;SDS011;51453;47.738;7.420;2022-11-04T01:01:58;3.08;;;1.10;;
64938;SDS011;51453;47.738;7.420;2022-11-04T01:04:24;2.30;;;1.20;;
64938;SDS011;51453;47.738;7.420;2022-11-04T01:06:49;3.13;;;1.25;;
64938;SDS011;51453;47.738;7.420;2022-11-04T01:09:15;1.98;;;1.02;;
64938;SDS011;51453;47.738;7.420;2022-11-04T01:11:41;2.28;;;1.10;;
64938;SDS011;51453;47.738;7.420;2022-11-04T01:14:06;3.03;;;0.90;;
64938;SDS011;51453;47.738;7.420;2022-11-04T01:16:32;1.27;;;0.93;;
64938;SDS011;51453;47.738;7.420;2022-11-04T01:18:58;2.80;;;1.30;;
64938;SDS011;51453;47.738;7.420;2022-11-04T01:21:23;2.88;;;1.30;;
64938;SDS011;51453;47.738;7.420;2022-11-04T01:23:49;2.10;;;1.10;;
64938;SDS011;51453;47.738;7.420;2022-11-04T01:26:16;4.22;;;0.95;;
64938;SDS011;51453;47.738;7.420;2022-11-04T01:28:43;2.75;;;1.10;;
64938;SDS011;51453;47.738;7.420;2022-11-04T01:31:11;5.95;;;1.27;;
64938;SDS011;51453;47.738;7.420;2022-11-04T01:33:38;2.30;;;1.13;;
64938;SDS011;51453;47.738;7.420;2022-11-04T01:36:04;3.03;;;1.02;;
64938;SDS011;51453;47.738;7.420;2022-11-04T01:38:31;6.60;;;1.10;;
64938;SDS011;51453;47.738;7.420;2022-11-04T01:40:57;1.70;;;1.00;;
64938;SDS011;51453;47.738;7.420;2022-11-04T01:48:58;1.05;;;0.73;;
64938;SDS011;51453;47.738;7.420;2022-11-04T01:51:30;5.53;;;1.27;;
64938;SDS011;51453;47.738;7.420;2022-11-04T01:53:59;3.43;;;0.97;;
64938;SDS011;51453;47.738;7.420;2022-11-04T01:56:26;0.98;;;0.90;;
64938;SDS011;51453;47.738;7.420;2022-11-04T01:58:53;1.23;;;0.80;;
64938;SDS011;51453;47.738;7.420;2022-11-04T02:01:23;1.58;;;0.90;;
64938;SDS011;51453;47.738;7.420;2022-11-04T02:03:50;1.98;;;1.00;;
64938;SDS011;51453;47.738;7.420;2022-11-04T02:06:19;2.67;;;0.90;;
64938;SDS011;51453;47.738;7.420;2022-11-04T02:08:47;1.38;;;0.90;;
64938;SDS011;51453;47.738;7.420;2022-11-04T02:11:13;4.72;;;1.17;;
64938;SDS011;51453;47.738;7.420;2022-11-04T02:13:59;1.60;;;0.80;;
64938;SDS011;51453;47.738;7.420;2022-11-04T02:16:37;1.88;;;0.73;;
64938;SDS011;51453;47.738;7.420;2022-11-04T02:30:12;1.88;;;0.80;;
64938;SDS011;51453;47.738;7.420;2022-11-04T02:37:57;1.55;;;0.82;;
64938;SDS011;51453;47.738;7.420;2022-11-04T02:43:10;2.15;;;0.88;;
64938;SDS011;51453;47.738;7.420;2022-11-04T02:45:46;4.90;;;0.93;;
64938;SDS011;51453;47.738;7.420;2022-11-04T02:50:55;1.80;;;0.80;;
64938;SDS011;51453;47.738;7.420;2022-11-04T02:53:44;0.50;;;0.50;;
64938;SDS011;51453;47.738;7.420;2022-11-04T02:56:14;1.98;;;0.65;;
64938;SDS011;51453;47.738;7.420;2022-11-04T02:58:45;3.33;;;1.17;;
64938;SDS011;51453;47.738;7.420;2022-11-04T03:01:17;1.35;;;0.70;;
64938;SDS011;51453;47.738;7.420;2022-11-04T03:03:46;1.33;;;0.70;;
64938;SDS011;51453;47.738;7.420;2022-11-04T03:06:16;2.53;;;1.13;;
64938;SDS011;51453;47.738;7.420;2022-11-04T03:11:15;5.13;;;1.10;;
64938;SDS011;51453;47.738;7.420;2022-11-04T03:13:47;4.57;;;1.10;;
64938;SDS011;51453;47.738;7.420;2022-11-04T03:16:23;1.38;;;0.85;;
64938;SDS011;51453;47.738;7.420;2022-11-04T03:19:31;0.93;;;0.70;;
64938;SDS011;51453;47.738;7.420;2022-11-04T03:21:54;1.58;;;0.70;;
64938;SDS011;51453;47.738;7.420;2022-11-04T03:24:30;1.05;;;0.80;;
64938;SDS011;51453;47.738;7.420;2022-11-04T03:27:13;4.45;;;0.60;;
64938;SDS011;51453;47.738;7.420;2022-11-04T03:29:55;1.23;;;0.60;;
64938;SDS011;51453;47.738;7.420;2022-11-04T03:35:00;2.63;;;0.90;;
64938;SDS011;51453;47.738;7.420;2022-11-04T03:37:26;2.38;;;1.02;;
64938;SDS011;51453;47.738;7.420;2022-11-04T03:39:52;1.95;;;0.88;;
64938;SDS011;51453;47.738;7.420;2022-11-04T03:42:18;3.60;;;0.80;;
64938;SDS011;51453;47.738;7.420;2022-11-04T03:44:49;2.35;;;0.73;;
64938;SDS011;51453;47.738;7.420;2022-11-04T03:47:26;1.52;;;0.90;;
64938;SDS011;51453;47.738;7.420;2022-11-04T03:50:01;2.05;;;1.05;;
64938;SDS011;51453;47.738;7.420;2022-11-04T03:52:33;1.92;;;0.95;;
64938;SDS011;51453;47.738;7.420;2022-11-04T03:55:01;5.70;;;0.95;;
64938;SDS011;51453;47.738;7.420;2022-11-04T03:57:32;3.35;;;1.02;;
64938;SDS011;51453;47.738;7.420;2022-11-04T04:00:17;2.92;;;0.80;;
64938;SDS011;51453;47.738;7.420;2022-11-04T04:05:30;1.40;;;1.08;;
64938;SDS011;51453;47.738;7.420;2022-11-04T04:17:02;5.85;;;1.70;;
64938;SDS011;51453;47.738;7.420;2022-11-04T04:19:51;3.25;;;2.10;;
64938;SDS011;51453;47.738;7.420;2022-11-04T04:23:04;7.78;;;2.55;;
64938;SDS011;51453;47.738;7.420;2022-11-04T04:25:53;8.13;;;3.00;;
64938;SDS011;51453;47.738;7.420;2022-11-04T04:28:38;8.80;;;2.90;;
64938;SDS011;51453;47.738;7.420;2022-11-04T04:31:06;7.45;;;2.53;;
64938;SDS011;51453;47.738;7.420;2022-11-04T04:33:35;7.68;;;2.67;;
64938;SDS011;51453;47.738;7.420;2022-11-04T04:36:01;6.38;;;2.85;;
64938;SDS011;51453;47.738;7.420;2022-11-04T04:38:30;3.78;;;2.45;;
64938;SDS011;51453;47.738;7.420;2022-11-04T04:41:16;3.60;;;2.00;;
64938;SDS011;51453;47.738;7.420;2022-11-04T04:44:25;5.07;;;1.65;;
64938;SDS011;51453;47.738;7.420;2022-11-04T04:47:13;4.05;;;1.67;;
64938;SDS011;51453;47.738;7.420;2022-11-04T04:49:51;2.22;;;1.67;;
64938;SDS011;51453;47.738;7.420;2022-11-04T04:52:18;4.20;;;1.60;;
64938;SDS011;51453;47.738;7.420;2022-11-04T04:54:44;2.80;;;1.45;;
64938;SDS011;51453;47.738;7.420;2022-11-04T04:57:10;4.78;;;1.10;;
64938;SDS011;51453;47.738;7.420;2022-11-04T04:59:35;2.97;;;2.65;;
64938;SDS011;51453;47.738;7.420;2022-11-04T05:02:01;4.50;;;2.45;;
64938;SDS011;51453;47.738;7.420;2022-11-04T05:04:27;6.38;;;1.60;;
64938;SDS011;51453;47.738;7.420;2022-11-04T05:06:53;4.47;;;1.30;;
64938;SDS011;51453;47.738;7.420;2022-11-04T05:09:19;1.80;;;1.13;;
64938;SDS011;51453;47.738;7.420;2022-11-04T05:11:45;1.75;;;1.00;;
64938;SDS011;51453;47.738;7.420;2022-11-04T05:14:10;2.75;;;0.93;;
64938;SDS011;51453;47.738;7.420;2022-11-04T05:16:36;3.95;;;1.10;;
64938;SDS011;51453;47.738;7.420;2022-11-04T05:19:02;2.28;;;0.98;;
64938;SDS011;51453;47.738;7.420;2022-11-04T05:21:27;3.13;;;1.17;;
64938;SDS011;51453;47.738;7.420;2022-11-04T05:23:53;7.05;;;1.35;;
64938;SDS011;51453;47.738;7.420;2022-11-04T05:26:18;7.40;;;1.40;;
64938;SDS011;51453;47.738;7.420;2022-11-04T05:28:44;2.75;;;1.48;;
64938;SDS011;51453;47.738;7.420;2022-11-04T05:31:10;2.00;;;1.05;;
64938;SDS011;51453;47.738;7.420;2022-11-04T05:33:35;1.90;;;1.23;;
64938;SDS011;51453;47.738;7.420;2022-11-04T05:36:05;4.78;;;1.30;;
64938;SDS011;51453;47.738;7.420;2022-11-04T05:38:35;3.88;;;1.88;;
64938;SDS011;51453;47.738;7.420;2022-11-04T05:41:01;13.30;;;3.90;;
64938;SDS011;51453;47.738;7.420;2022-11-04T05:43:28;12.48;;;3.78;;
64938;SDS011;51453;47.738;7.420;2022-11-04T05:45:54;7.55;;;2.30;;
64938;SDS011;51453;47.738;7.420;2022-11-04T05:48:19;4.78;;;1.80;;
64938;SDS011;51453;47.738;7.420;2022-11-04T05:50:45;5.43;;;1.60;;
64938;SDS011;51453;47.738;7.420;2022-11-04T05:53:11;9.15;;;1.30;;
64938;SDS011;51453;47.738;7.420;2022-11-04T05:55:36;3.28;;;1.17;;
64938;SDS011;51453;47.738;7.420;2022-11-04T05:58:02;7.13;;;1.40;;
64938;SDS011;51453;47.738;7.420;2022-11-04T06:00:28;4.18;;;1.35;;
64938;SDS011;51453;47.738;7.420;2022-11-04T06:02:54;4.70;;;1.70;;
64938;SDS011;51453;47.738;7.420;2022-11-04T06:05:23;3.17;;;1.70;;
64938;SDS011;51453;47.738;7.420;2022-11-04T06:07:49;3.95;;;1.50;;
64938;SDS011;51453;47.738;7.420;2022-11-04T06:10:15;3.45;;;1.60;;
64938;SDS011;51453;47.738;7.420;2022-11-04T06:12:40;4.50;;;1.85;;
64938;SDS011;51453;47.738;7.420;2022-11-04T06:15:06;2.95;;;1.40;;
64938;SDS011;51453;47.738;7.420;2022-11-04T06:17:32;3.90;;;1.50;;
64938;SDS011;51453;47.738;7.420;2022-11-04T06:19:58;4.88;;;2.25;;
64938;SDS011;51453;47.738;7.420;2022-11-04T06:22:24;7.57;;;2.63;;
64938;SDS011;51453;47.738;7.420;2022-11-04T06:24:49;3.78;;;2.55;;
64938;SDS011;51453;47.738;7.420;2022-11-04T06:27:15;4.20;;;2.38;;
64938;SDS011;51453;47.738;7.420;2022-11-04T06:29:41;4.15;;;2.50;;
64938;SDS011;51453;47.738;7.420;2022-11-04T06:32:08;5.78;;;2.47;;
64938;SDS011;51453;47.738;7.420;2022-11-04T06:34:35;4.57;;;2.60;;
64938;SDS011;51453;47.738;7.420;2022-11-04T06:37:01;6.55;;;3.22;;
64938;SDS011;51453;47.738;7.420;2022-11-04T06:39:27;5.47;;;2.70;;
64938;SDS011;51453;47.738;7.420;2022-11-04T06:41:53;7.40;;;2.90;;
64938;SDS011;51453;47.738;7.420;2022-11-04T06:44:19;7.88;;;3.10;;
64938;SDS011;51453;47.738;7.420;2022-11-04T06:46:44;8.45;;;3.17;;
64938;SDS011;51453;47.738;7.420;2022-11-04T06:49:14;7.68;;;3.95;;
64938;SDS011;51453;47.738;7.420;2022-11-04T06:51:44;6.35;;;3.85;;
64938;SDS011;51453;47.738;7.420;2022-11-04T06:54:11;5.07;;;3.40;;
64938;SDS011;51453;47.738;7.420;2022-11-04T06:56:37;7.57;;;3.65;;
64938;SDS011;51453;47.738;7.420;2022-11-04T06:59:03;9.00;;;3.95;;
64938;SDS011;51453;47.738;7.420;2022-11-04T07:01:31;5.13;;;2.40;;
64938;SDS011;51453;47.738;7.420;2022-11-04T07:03:59;6.45;;;2.50;;
64938;SDS011;51453;47.738;7.420;2022-11-04T07:06:26;9.38;;;2.97;;
64938;SDS011;51453;47.738;7.420;2022-11-04T07:08:59;6.10;;;2.88;;
64938;SDS011;51453;47.738;7.420;2022-11-04T07:11:27;8.70;;;2.90;;
64938;SDS011;51453;47.738;7.420;2022-11-04T07:13:54;7.38;;;2.90;;
64938;SDS011;51453;47.738;7.420;2022-11-04T07:16:20;7.65;;;3.35;;
64938;SDS011;51453;47.738;7.420;2022-11-04T07:18:45;6.82;;;4.03;;
64938;SDS011;51453;47.738;7.420;2022-11-04T07:21:13;10.82;;;4.95;;
64938;SDS011;51453;47.738;7.420;2022-11-04T07:23:39;7.32;;;3.90;;
64938;SDS011;51453;47.738;7.420;2022-11-04T07:26:05;13.02;;;5.40;;
64938;SDS011;51453;47.738;7.420;2022-11-04T07:28:32;11.32;;;4.68;;
64938;SDS011;51453;47.738;7.420;2022-11-04T07:30:59;9.50;;;4.28;;
64938;SDS011;51453;47.738;7.420;2022-11-04T07:33:26;8.00;;;4.90;;
64938;SDS011;51453;47.738;7.420;2022-11-04T07:35:52;7.18;;;3.63;;
64938;SDS011;51453;47.738;7.420;2022-11-04T07:38:19;6.70;;;3.85;;
64938;SDS011;51453;47.738;7.420;2022-11-04T07:40:46;5.30;;;3.58;;
64938;SDS011;51453;47.738;7.420;2022-11-04T07:43:12;6.20;;;3.78;;
64938;SDS011;51453;47.738;7.420;2022-11-04T07:45:38;6.93;;;3.45;;
64938;SDS011;51453;47.738;7.420;2022-11-04T07:48:04;9.43;;;2.80;;
64938;SDS011;51453;47.738;7.420;2022-11-04T07:50:29;8.77;;;3.33;;
64938;SDS011;51453;47.738;7.420;2022-11-04T07:52:55;8.50;;;2.90;;
64938;SDS011;51453;47.738;7.420;2022-11-04T07:55:22;8.57;;;3.35;;
64938;SDS011;51453;47.738;7.420;2022-11-04T07:57:48;7.75;;;3.55;;
64938;SDS011;51453;47.738;7.420;2022-11-04T08:00:14;10.05;;;3.60;;
64938;SDS011;51453;47.738;7.420;2022-11-04T08:02:43;9.70;;;3.40;;
64938;SDS011;51453;47.738;7.420;2022-11-04T08:05:10;7.00;;;3.92;;
64938;SDS011;51453;47.738;7.420;2022-11-04T08:07:39;12.05;;;6.28;;
64938;SDS011;51453;47.738;7.420;2022-11-04T08:10:06;13.32;;;5.75;;
64938;SDS011;51453;47.738;7.420;2022-11-04T08:12:33;13.60;;;5.18;;
64938;SDS011;51453;47.738;7.420;2022-11-04T08:14:58;5.57;;;3.75;;
64938;SDS011;51453;47.738;7.420;2022-11-04T08:17:24;11.65;;;4.90;;
64938;SDS011;51453;47.738;7.420;2022-11-04T08:19:50;9.88;;;5.10;;
64938;SDS011;51453;47.738;7.420;2022-11-04T08:22:16;5.65;;;3.40;;
64938;SDS011;51453;47.738;7.420;2022-11-04T08:24:42;9.00;;;3.38;;
64938;SDS011;51453;47.738;7.420;2022-11-04T08:27:08;10.55;;;3.22;;
64938;SDS011;51453;47.738;7.420;2022-11-04T08:29:34;12.50;;;3.03;;
64938;SDS011;51453;47.738;7.420;2022-11-04T08:32:00;9.38;;;3.75;;
64938;SDS011;51453;47.738;7.420;2022-11-04T08:34:26;9.98;;;3.00;;
64938;SDS011;51453;47.738;7.420;2022-11-04T08:36:52;8.95;;;2.90;;
64938;SDS011;51453;47.738;7.420;2022-11-04T08:39:17;8.27;;;3.00;;
64938;SDS011;51453;47.738;7.420;2022-11-04T08:41:44;7.28;;;3.85;;
64938;SDS011;51453;47.738;7.420;2022-11-04T08:44:13;7.75;;;3.60;;
64938;SDS011;51453;47.738;7.420;2022-11-04T08:46:40;10.85;;;3.45;;
64938;SDS011;51453;47.738;7.420;2022-11-04T08:49:06;6.18;;;3.53;;
64938;SDS011;51453;47.738;7.420;2022-11-04T08:51:33;9.48;;;3.85;;
64938;SDS011;51453;47.738;7.420;2022-11-04T08:53:59;9.18;;;3.40;;
64938;SDS011;51453;47.738;7.420;2022-11-04T08:56:30;11.18;;;4.68;;
64938;SDS011;51453;47.738;7.420;2022-11-04T08:58:57;9.57;;;4.55;;
64938;SDS011;51453;47.738;7.420;2022-11-04T09:01:24;8.80;;;4.82;;
64938;SDS011;51453;47.738;7.420;2022-11-04T09:03:51;8.55;;;3.90;;
64938;SDS011;51453;47.738;7.420;2022-11-04T09:06:21;9.35;;;3.97;;
64938;SDS011;51453;47.738;7.420;2022-11-04T09:08:55;6.55;;;3.30;;
64938;SDS011;51453;47.738;7.420;2022-11-04T09:13:52;10.15;;;3.65;;
64938;SDS011;51453;47.738;7.420;2022-11-04T09:16:17;7.88;;;3.50;;
64938;SDS011;51453;47.738;7.420;2022-11-04T09:18:43;6.97;;;3.65;;
64938;SDS011;51453;47.738;7.420;2022-11-04T09:21:09;10.80;;;3.53;;
64938;SDS011;51453;47.738;7.420;2022-11-04T09:23:35;8.57;;;2.78;;
64938;SDS011;51453;47.738;7.420;2022-11-04T09:26:09;6.07;;;2.20;;
64938;SDS011;51453;47.738;7.420;2022-11-04T09:28:38;5.03;;;1.95;;
64938;SDS011;51453;47.738;7.420;2022-11-04T09:31:08;3.40;;;2.10;;
64938;SDS011;51453;47.738;7.420;2022-11-04T09:33:42;9.10;;;1.80;;
64938;SDS011;51453;47.738;7.420;2022-11-04T09:36:09;5.05;;;1.70;;
64938;SDS011;51453;47.738;7.420;2022-11-04T09:38:36;2.70;;;1.67;;
64938;SDS011;51453;47.738;7.420;2022-11-04T09:46:19;4.45;;;1.20;;
64938;SDS011;51453;47.738;7.420;2022-11-04T09:48:49;8.52;;;1.52;;
64938;SDS011;51453;47.738;7.420;2022-11-04T09:51:19;5.18;;;1.20;;
64938;SDS011;51453;47.738;7.420;2022-11-04T09:53:51;3.65;;;1.00;;
64938;SDS011;51453;47.738;7.420;2022-11-04T09:56:23;5.10;;;1.30;;
64938;SDS011;51453;47.738;7.420;2022-11-04T09:58:52;4.57;;;1.00;;
64938;SDS011;51453;47.738;7.420;2022-11-04T10:28:55;3.20;;;1.13;;
64938;SDS011;51453;47.738;7.420;2022-11-04T10:31:26;3.45;;;1.30;;
64938;SDS011;51453;47.738;7.420;2022-11-04T10:34:02;4.55;;;1.70;;
64938;SDS011;51453;47.738;7.420;2022-11-04T10:36:33;6.90;;;1.35;;
64938;SDS011;51453;47.738;7.420;2022-11-04T10:39:01;4.00;;;1.60;;
64938;SDS011;51453;47.738;7.420;2022-11-04T10:41:37;3.85;;;0.90;;
64938;SDS011;51453;47.738;7.420;2022-11-04T10:44:15;2.92;;;1.13;;
64938;SDS011;51453;47.738;7.420;2022-11-04T10:52:24;4.60;;;1.08;;
64938;SDS011;51453;47.738;7.420;2022-11-04T10:54:50;1.85;;;1.00;;
64938;SDS011;51453;47.738;7.420;2022-11-04T10:57:19;2.60;;;1.00;;
64938;SDS011;51453;47.738;7.420;2022-11-04T11:05:20;7.72;;;1.30;;
64938;SDS011;51453;47.738;7.420;2022-11-04T11:07:49;7.80;;;1.67;;
64938;SDS011;51453;47.738;7.420;2022-11-04T11:12:51;3.03;;;1.30;;
64938;SDS011;51453;47.738;7.420;2022-11-04T11:17:48;2.08;;;1.20;;
64938;SDS011;51453;47.738;7.420;2022-11-04T11:20:21;5.53;;;1.90;;
64938;SDS011;51453;47.738;7.420;2022-11-04T11:22:49;4.60;;;1.70;;
64938;SDS011;51453;47.738;7.420;2022-11-04T11:25:19;4.50;;;1.48;;
64938;SDS011;51453;47.738;7.420;2022-11-04T11:27:54;8.02;;;1.73;;
64938;SDS011;51453;47.738;7.420;2022-11-04T11:30:33;4.45;;;1.40;;
64938;SDS011;51453;47.738;7.420;2022-11-04T11:35:45;4.10;;;1.05;;
64938;SDS011;51453;47.738;7.420;2022-11-04T11:40:46;6.28;;;1.23;;
64938;SDS011;51453;47.738;7.420;2022-11-04T11:43:22;1.42;;;0.80;;
64938;SDS011;51453;47.738;7.420;2022-11-04T11:45:52;8.85;;;1.45;;
64938;SDS011;51453;47.738;7.420;2022-11-04T11:50:56;3.72;;;1.20;;
64938;SDS011;51453;47.738;7.420;2022-11-04T11:53:25;5.30;;;1.20;;
64938;SDS011;51453;47.738;7.420;2022-11-04T11:56:02;3.70;;;1.10;;
64938;SDS011;51453;47.738;7.420;2022-11-04T11:58:45;3.22;;;1.00;;
64938;SDS011;51453;47.738;7.420;2022-11-04T12:01:18;2.42;;;0.80;;
64938;SDS011;51453;47.738;7.420;2022-11-04T12:04:09;1.88;;;0.70;;
64938;SDS011;51453;47.738;7.420;2022-11-04T12:15:16;4.15;;;1.00;;
64938;SDS011;51453;47.738;7.420;2022-11-04T12:33:31;5.80;;;0.88;;
64938;SDS011;51453;47.738;7.420;2022-11-04T12:39:18;5.82;;;1.15;;
64938;SDS011;51453;47.738;7.420;2022-11-04T12:44:11;3.95;;;0.95;;
64938;SDS011;51453;47.738;7.420;2022-11-04T12:52:17;5.55;;;0.90;;
64938;SDS011;51453;47.738;7.420;2022-11-04T13:00:09;3.00;;;0.70;;
64938;SDS011;51453;47.738;7.420;2022-11-04T13:02:48;4.15;;;0.80;;
64938;SDS011;51453;47.738;7.420;2022-11-04T13:10:25;4.72;;;0.98;;
64938;SDS011;51453;47.738;7.420;2022-11-04T13:13:12;2.47;;;0.50;;
64938;SDS011;51453;47.738;7.420;2022-11-04T13:15:44;3.15;;;0.80;;
64938;SDS011;51453;47.738;7.420;2022-11-04T13:18:18;3.42;;;0.90;;
64938;SDS011;51453;47.738;7.420;2022-11-04T13:21:01;3.85;;;0.57;;
64938;SDS011;51453;47.738;7.420;2022-11-04T13:23:44;2.72;;;0.80;;
64938;SDS011;51453;47.738;7.420;2022-11-04T13:26:22;4.65;;;1.10;;
64938;SDS011;51453;47.738;7.420;2022-11-04T13:28:54;4.72;;;1.20;;
64938;SDS011;51453;47.738;7.420;2022-11-04T13:31:34;2.78;;;1.20;;
64938;SDS011;51453;47.738;7.420;2022-11-04T13:34:38;3.35;;;1.15;;
64938;SDS011;51453;47.738;7.420;2022-11-04T13:40:12;3.33;;;1.30;;
64938;SDS011;51453;47.738;7.420;2022-11-04T13:45:51;12.68;;;1.70;;
64938;SDS011;51453;47.738;7.420;2022-11-04T13:48:19;5.20;;;0.90;;
64938;SDS011;51453;47.738;7.420;2022-11-04T13:50:54;1.40;;;0.57;;
64938;SDS011;51453;47.738;7.420;2022-11-04T13:56:32;3.72;;;1.00;;
64938;SDS011;51453;47.738;7.420;2022-11-04T14:04:43;5.78;;;2.10;;
64938;SDS011;51453;47.738;7.420;2022-11-04T14:07:16;8.07;;;3.20;;
64938;SDS011;51453;47.738;7.420;2022-11-04T14:20:00;6.75;;;2.00;;
64938;SDS011;51453;47.738;7.420;2022-11-04T14:25:26;5.10;;;1.65;;
64938;SDS011;51453;47.738;7.420;2022-11-04T14:46:51;8.50;;;2.03;;
64938;SDS011;51453;47.738;7.420;2022-11-04T14:49:41;4.20;;;1.70;;
64938;SDS011;51453;47.738;7.420;2022-11-04T14:52:18;9.77;;;2.00;;
64938;SDS011;51453;47.738;7.420;2022-11-04T14:54:48;6.38;;;2.20;;
64938;SDS011;51453;47.738;7.420;2022-11-04T14:57:18;4.38;;;2.08;;
64938;SDS011;51453;47.738;7.420;2022-11-04T14:59:46;9.77;;;2.45;;
64938;SDS011;51453;47.738;7.420;2022-11-04T15:02:19;5.63;;;2.05;;
64938;SDS011;51453;47.738;7.420;2022-11-04T15:04:49;10.40;;;2.22;;
64938;SDS011;51453;47.738;7.420;2022-11-04T15:07:33;7.18;;;1.55;;
64938;SDS011;51453;47.738;7.420;2022-11-04T15:10:03;9.82;;;2.55;;
64938;SDS011;51453;47.738;7.420;2022-11-04T15:12:49;8.77;;;1.80;;
64938;SDS011;51453;47.738;7.420;2022-11-04T15:17:49;4.18;;;1.13;;
64938;SDS011;51453;47.738;7.420;2022-11-04T15:20:20;3.50;;;1.40;;
64938;SDS011;51453;47.738;7.420;2022-11-04T15:22:49;4.88;;;1.60;;
64938;SDS011;51453;47.738;7.420;2022-11-04T15:25:16;4.18;;;1.13;;
64938;SDS011;51453;47.738;7.420;2022-11-04T15:27:42;2.88;;;0.98;;
64938;SDS011;51453;47.738;7.420;2022-11-04T15:30:23;8.63;;;1.25;;
64938;SDS011;51453;47.738;7.420;2022-11-04T15:32:55;3.85;;;1.00;;
64938;SDS011;51453;47.738;7.420;2022-11-04T15:35:24;2.88;;;1.30;;
64938;SDS011;51453;47.738;7.420;2022-11-04T15:37:51;5.38;;;1.50;;
64938;SDS011;51453;47.738;7.420;2022-11-04T15:40:19;4.88;;;2.10;;
64938;SDS011;51453;47.738;7.420;2022-11-04T15:42:46;8.07;;;1.77;;
64938;SDS011;51453;47.738;7.420;2022-11-04T15:45:27;5.25;;;1.90;;
64938;SDS011;51453;47.738;7.420;2022-11-04T15:51:02;2.42;;;1.50;;
64938;SDS011;51453;47.738;7.420;2022-11-04T15:54:18;4.72;;;1.80;;
64938;SDS011;51453;47.738;7.420;2022-11-04T15:56:54;3.78;;;1.50;;
64938;SDS011;51453;47.738;7.420;2022-11-04T15:59:32;3.80;;;1.30;;
64938;SDS011;51453;47.738;7.420;2022-11-04T16:01:59;3.50;;;1.42;;
64938;SDS011;51453;47.738;7.420;2022-11-04T16:04:27;3.78;;;1.40;;
64938;SDS011;51453;47.738;7.420;2022-11-04T16:07:04;5.25;;;1.98;;
64938;SDS011;51453;47.738;7.420;2022-11-04T16:09:51;12.25;;;5.47;;
64938;SDS011;51453;47.738;7.420;2022-11-04T16:14:54;11.60;;;5.60;;
64938;SDS011;51453;47.738;7.420;2022-11-04T16:17:21;11.48;;;5.32;;
64938;SDS011;51453;47.738;7.420;2022-11-04T16:19:57;8.18;;;4.25;;
64938;SDS011;51453;47.738;7.420;2022-11-04T16:22:31;6.82;;;3.40;;
64938;SDS011;51453;47.738;7.420;2022-11-04T16:25:02;6.03;;;3.25;;
64938;SDS011;51453;47.738;7.420;2022-11-04T16:27:31;5.57;;;3.60;;
64938;SDS011;51453;47.738;7.420;2022-11-04T16:30:01;5.03;;;3.00;;
64938;SDS011;51453;47.738;7.420;2022-11-04T16:32:28;6.07;;;2.47;;
64938;SDS011;51453;47.738;7.420;2022-11-04T16:35:07;5.78;;;2.75;;
64938;SDS011;51453;47.738;7.420;2022-11-04T16:37:59;5.68;;;2.50;;
64938;SDS011;51453;47.738;7.420;2022-11-04T16:40:25;4.78;;;2.13;;
64938;SDS011;51453;47.738;7.420;2022-11-04T16:42:51;5.10;;;2.33;;
64938;SDS011;51453;47.738;7.420;2022-11-04T16:47:51;5.00;;;2.22;;
64938;SDS011;51453;47.738;7.420;2022-11-04T16:50:17;2.92;;;1.67;;
64938;SDS011;51453;47.738;7.420;2022-11-04T16:52:43;2.25;;;1.75;;
64938;SDS011;51453;47.738;7.420;2022-11-04T16:55:10;1.67;;;1.23;;
64938;SDS011;51453;47.738;7.420;2022-11-04T16:57:36;1.38;;;0.80;;
64938;SDS011;51453;47.738;7.420;2022-11-04T17:00:03;1.20;;;0.80;;
64938;SDS011;51453;47.738;7.420;2022-11-04T17:02:31;2.92;;;0.60;;
64938;SDS011;51453;47.738;7.420;2022-11-04T17:05:01;0.88;;;0.70;;
64938;SDS011;51453;47.738;7.420;2022-11-04T17:07:28;1.98;;;0.70;;
64938;SDS011;51453;47.738;7.420;2022-11-04T17:09:54;1.08;;;0.70;;
64938;SDS011;51453;47.738;7.420;2022-11-04T17:12:20;1.48;;;0.45;;
64938;SDS011;51453;47.738;7.420;2022-11-04T17:14:46;1.52;;;0.70;;
64938;SDS011;51453;47.738;7.420;2022-11-04T17:17:11;1.48;;;0.63;;
64938;SDS011;51453;47.738;7.420;2022-11-04T17:19:37;1.67;;;0.68;;
64938;SDS011;51453;47.738;7.420;2022-11-04T17:22:03;0.50;;;0.50;;
64938;SDS011;51453;47.738;7.420;2022-11-04T17:24:31;0.63;;;0.60;;
64938;SDS011;51453;47.738;7.420;2022-11-04T17:26:57;0.82;;;0.80;;
64938;SDS011;51453;47.738;7.420;2022-11-04T17:29:23;1.75;;;0.73;;
64938;SDS011;51453;47.738;7.420;2022-11-04T17:31:48;0.80;;;0.80;;
64938;SDS011;51453;47.738;7.420;2022-11-04T17:34:14;1.58;;;0.65;;
64938;SDS011;51453;47.738;7.420;2022-11-04T17:36:42;1.75;;;0.65;;
64938;SDS011;51453;47.738;7.420;2022-11-04T17:39:08;1.23;;;0.90;;
64938;SDS011;51453;47.738;7.420;2022-11-04T17:41:34;2.47;;;0.70;;
64938;SDS011;51453;47.738;7.420;2022-11-04T17:44:18;0.90;;;0.88;;
64938;SDS011;51453;47.738;7.420;2022-11-04T17:46:44;1.15;;;1.02;;
64938;SDS011;51453;47.738;7.420;2022-11-04T17:51:39;0.70;;;0.70;;
64938;SDS011;51453;47.738;7.420;2022-11-04T17:54:07;1.58;;;0.85;;
64938;SDS011;51453;47.738;7.420;2022-11-04T17:56:33;1.77;;;1.08;;
64938;SDS011;51453;47.738;7.420;2022-11-04T17:58:59;1.88;;;1.10;;
64938;SDS011;51453;47.738;7.420;2022-11-04T18:01:28;2.10;;;1.33;;
64938;SDS011;51453;47.738;7.420;2022-11-04T18:03:55;1.30;;;1.20;;
64938;SDS011;51453;47.738;7.420;2022-11-04T18:06:22;1.27;;;1.17;;
64938;SDS011;51453;47.738;7.420;2022-11-04T18:08:52;1.95;;;1.20;;
64938;SDS011;51453;47.738;7.420;2022-11-04T18:11:18;2.35;;;1.58;;
64938;SDS011;51453;47.738;7.420;2022-11-04T18:14:03;1.80;;;1.50;;
64938;SDS011;51453;47.738;7.420;2022-11-04T18:16:29;2.00;;;1.63;;
64938;SDS011;51453;47.738;7.420;2022-11-04T18:18:58;2.17;;;1.85;;
64938;SDS011;51453;47.738;7.420;2022-11-04T18:21:24;3.20;;;1.90;;
64938;SDS011;51453;47.738;7.420;2022-11-04T18:23:51;4.75;;;2.05;;
64938;SDS011;51453;47.738;7.420;2022-11-04T18:26:18;2.25;;;1.80;;
64938;SDS011;51453;47.738;7.420;2022-11-04T18:28:44;4.78;;;1.80;;
64938;SDS011;51453;47.738;7.420;2022-11-04T18:31:11;1.88;;;1.52;;
64938;SDS011;51453;47.738;7.420;2022-11-04T18:33:44;2.08;;;1.48;;
64938;SDS011;51453;47.738;7.420;2022-11-04T18:36:09;2.33;;;1.52;;